Historyczne dane pomiarowe

Dodano dane terminowe – wersja testowa.

Dane z okresu 1951-2019

Wersja bazy: 1.34 [2019-03-16, lista zmian], aktualizacja planowana na 2019-04-15

Dane meteo z obszaru Polski uzyskane na podstawie danych udostępnionych przez Instytut Meteorologii i Gospodarki Wodnej – Państwowy Instytut Badawczy.

 

Wybierz Datę:    

       

TemperaturaWilgotnośćWiatrCiśnienieOpadyŚniegCzas trwania zjawisk
 Stacja t tx tn tng RH VA  wxwx mslp ppp RRR   cm mm wxwxwxwxwxwxwx
1999-08-14 17.4 23.0 10.6 5.8 81.5- 6.0 1.7---- 0.2------------
1999-08-13 17.0 22.3 11.2 8.9 84.3- 6.0 1.3---- 0.0------------
1999-08-12 15.8 20.2 10.7 7.4 83.0- 5.7 0.7---- 0.0------------
1999-08-11 18.1 23.6 9.8 8.6 89.3- 3.7 2.0---- 1.0------------
1999-08-10 20.2 24.7 15.9 13.7 96.3- 5.3 2.0---- 0.4------------
1999-08-09 23.3 28.3 18.1 14.8 74.3- 6.0 0.0---- 2.6------------
1999-08-08 24.9 30.3 18.0 14.5 65.3- 2.3 0.0---- 0.0------------
1999-08-07 22.3 31.0 12.7 11.8 71.0- 2.0 0.0---- 0.0------------
1999-08-06 21.4 27.3 14.5 13.4 75.5- 3.3 0.7---- 0.0------------
1999-08-05 20.1 28.1 9.6 8.2 69.5- 4.0 1.0---- 1.2------------
1999-08-04 20.1 27.6 11.1 5.3 70.3- 3.0 0.7---- 0.0------------
1999-08-03 18.8 27.2 9.1 5.7 69.8- 2.3 0.0---- 0.0------------
1999-08-02 19.7 26.9 11.2 6.4 67.5- 3.0 0.0---- 0.0------------
1999-08-01 19.2 27.3 8.7 5.1 69.8- 1.3 0.3---- 0.0------------
1999-07-31 18.5 27.1 8.6 5.3 68.3- 2.3 0.7---- 0.0------------
1999-07-30 18.0 25.9 9.9 6.1 72.5- 2.0 0.7---- 0.0------------
1999-07-29 17.8 25.6 9.7 6.6 77.5- 1.3 0.3---- 0.0------------
1999-07-28 18.3 24.9 10.7 7.8 66.3- 0.3 0.3---- 0.0------------
1999-07-27 18.0 24.3 11.7 10.6 67.5- 3.7 2.7---- 0.0------------
1999-07-26 20.3 28.6 12.0 7.2 70.0- 2.0 1.0---- 0.0------------
1999-07-25 18.6 26.9 8.6 5.8 71.3- 0.3 0.0---- 0.0------------
1999-07-24 16.7 20.9 11.9 11.0 83.8- 4.3 2.0---- 0.0------------
1999-07-23 17.5 23.4 12.0 10.3 73.5- 7.0 1.0---- 0.0------------
1999-07-22 18.7 24.9 13.7 11.8 76.8- 6.0 2.3---- 0.0------------
1999-07-21 23.4 30.2 16.3 13.0 81.3- 5.3 2.7---- 6.5------------
1999-07-20 25.7 32.8 17.3 13.0 62.0- 2.0 0.7---- 0.0------------
1999-07-19 23.7 31.2 14.7 8.8 71.0- 1.0 1.0---- 0.0------------
1999-07-18 21.4 29.3 13.2 7.7 68.5- 1.0 0.3---- 0.0------------
1999-07-17 19.3 27.2 10.1 6.6 69.0- 1.0 0.7---- 0.0------------
1999-07-16 16.6 21.7 9.1 8.8 91.3- 3.3 0.0---- 3.2------------
1999-07-15 16.9 20.7 12.6 10.7 95.0- 5.0 0.7---- 6.5------------
1999-07-14 19.4 26.3 15.1 14.1 90.3- 5.7 0.7---- 1.8------------
1999-07-13 22.3 27.9 15.6 12.4 76.3- 2.0 0.0---- 0.0------------
1999-07-12 21.5 28.0 14.1 12.4 78.5- 5.0 0.0---- 1.4------------
1999-07-11 18.6 22.6 14.1 13.0 96.8- 8.0 1.0---- 4.2------------
1999-07-10 20.6 26.1 15.6 14.5 83.5- 8.0 1.0---- 0.0------------
1999-07-09 17.7 21.6 13.6 13.4 88.8- 8.0 2.0---- 0.0------------
1999-07-08 16.1 19.4 14.0 10.8 98.0- 8.0 1.3---- 6.7------------
1999-07-07 19.8 24.8 17.0 15.5 94.5- 8.0 1.3---- 8.3------------
1999-07-06 24.0 31.4 16.9 15.4 63.5- 6.0 1.3---- 27.8------------
1999-07-05 24.4 31.6 18.6 12.6 57.0- 1.3 0.0---- 0.0------------
1999-07-04 25.1 32.9 17.6 12.5 60.3- 0.7 0.0---- 0.0------------
1999-07-03 21.3 29.5 10.9 10.4 66.8- 0.3 0.0---- 0.0------------
1999-07-02 19.9 25.6 13.7 13.4 95.0- 3.3 1.0---- 3.2------------
1999-07-01 21.8 27.6 16.3 15.2 94.3- 7.7 1.3---- 4.2------------
1999-06-30 20.7 27.7 12.8 11.2 68.0- 2.3 0.3---- 1.7------------
1999-06-29 19.1 24.7 10.7 10.4 57.8- 2.3 1.3---- 0.0------------
1999-06-28 20.6 26.8 13.6 13.4 73.5- 2.7 1.0---- 0.6------------
1999-06-27 20.3 25.5 14.5 10.6 80.3- 5.3 1.0---- 2.1------------
1999-06-26 15.9 22.1 7.7 7.1 81.3- 6.7 1.0---- 0.0------------
1999-06-25 13.8 19.0 7.1 5.8 85.5- 3.3 1.0---- 2.6------------
1999-06-24 12.6 18.6 4.1 3.4 89.3- 2.3 0.0---- 0.0------------
1999-06-23 13.0 17.5 7.5 6.4 81.5- 5.3 2.0---- 0.0------------
1999-06-22 10.5 15.3 7.9 7.0 96.3- 8.0 2.0---- 14.4------------
1999-06-21 16.1 20.8 9.9 9.8 93.0- 6.3 2.0---- 10.0------------
1999-06-20 18.2 23.2 12.2 10.1 82.3- 5.7 1.0---- 0.0------------
1999-06-19 17.4 23.0 11.6 11.4 89.8- 7.7 1.0---- 0.0------------
1999-06-18 16.9 22.6 10.7 10.0 94.5- 8.0 1.7---- 23.4------------
1999-06-17 17.2 21.9 11.7 10.5 86.5- 6.7 1.3---- 0.0------------
1999-06-16 16.9 21.2 11.3 10.8 83.0- 5.3 1.7---- 0.0------------
385.6 ms

 

Źródłem pochodzenia danych jest Instytut Meteorologii i Gospodarki Wodnej – Państwowy Instytut Badawczy. Dane Instytutu Meteorologii i Gospodarki Wodnej – Państwowego Instytutu Badawczego zostały przetworzone.

Dane źródłowe można odnaleźć na stronie https://dane.imgw.pl